createdAt,value
2023-02-11T00:01:28.468Z,36.30
2023-02-11T00:03:56.169Z,36.95
2023-02-11T00:06:23.894Z,40.70
2023-02-11T00:08:50.527Z,39.58
2023-02-11T00:11:19.284Z,32.90
2023-02-11T00:13:47.209Z,34.95
2023-02-11T00:16:16.670Z,37.65
2023-02-11T00:18:44.050Z,40.88
2023-02-11T00:21:15.740Z,38.72
2023-02-11T00:23:42.512Z,33.35
2023-02-11T00:26:18.206Z,36.83
2023-02-11T00:28:45.859Z,35.83
2023-02-11T00:31:13.672Z,40.00
2023-02-11T00:33:41.088Z,36.60
2023-02-11T00:36:11.740Z,40.97
2023-02-11T00:41:04.990Z,22.88
2023-02-11T00:43:31.672Z,28.10
2023-02-11T00:45:59.518Z,38.67
2023-02-11T00:48:26.294Z,32.47
2023-02-11T00:50:52.927Z,44.75
2023-02-11T00:53:19.563Z,41.22
2023-02-11T00:55:46.242Z,37.92
2023-02-11T00:58:12.907Z,42.65
2023-02-11T01:00:40.072Z,43.13
2023-02-11T01:03:06.957Z,36.10
2023-02-11T01:05:33.642Z,40.13
2023-02-11T01:08:00.355Z,34.15
2023-02-11T01:10:28.512Z,35.20
2023-02-11T01:12:55.308Z,37.90
2023-02-11T01:15:22.844Z,34.10
2023-02-11T01:17:49.606Z,31.65
2023-02-11T01:20:19.849Z,34.22
2023-02-11T01:22:46.557Z,25.00
2023-02-11T01:25:13.405Z,33.40
2023-02-11T01:27:40.265Z,34.50
2023-02-11T01:30:09.424Z,34.88
2023-02-11T01:32:36.593Z,30.40
2023-02-11T01:35:04.076Z,32.67
2023-02-11T01:37:33.548Z,34.92
2023-02-11T01:40:02.758Z,31.42
2023-02-11T01:42:29.472Z,26.10
2023-02-11T01:44:57.862Z,29.88
2023-02-11T01:47:24.490Z,30.10
2023-02-11T01:49:57.687Z,40.67
2023-02-11T01:52:32.054Z,25.83
2023-02-11T01:55:27.898Z,24.35
2023-02-11T01:57:59.098Z,29.30
2023-02-11T02:00:30.797Z,26.42
2023-02-11T02:03:11.006Z,31.52
2023-02-11T02:05:57.659Z,30.10
2023-02-11T02:08:43.706Z,21.75
2023-02-11T02:11:10.600Z,33.83
2023-02-11T02:13:37.450Z,25.83
2023-02-11T02:16:12.434Z,27.95
2023-02-11T02:19:16.426Z,26.70
2023-02-11T02:22:07.423Z,32.88
2023-02-11T02:24:59.945Z,20.88
2023-02-11T02:27:56.712Z,30.08
2023-02-11T02:30:54.076Z,28.13
2023-02-11T02:33:24.531Z,21.90
2023-02-11T02:36:16.821Z,31.83
2023-02-11T02:38:59.047Z,21.90
2023-02-11T02:41:31.257Z,28.45
2023-02-11T02:43:58.578Z,28.73
2023-02-11T02:46:28.140Z,31.38
2023-02-11T02:48:56.023Z,25.92
2023-02-11T02:51:52.727Z,36.05
2023-02-11T02:54:44.255Z,21.98
2023-02-11T02:57:37.769Z,25.98
2023-02-11T03:00:44.232Z,18.73
2023-02-11T03:03:35.444Z,25.05
2023-02-11T03:06:29.774Z,23.38
2023-02-11T03:09:04.342Z,22.35
2023-02-11T03:11:31.353Z,29.77
2023-02-11T03:14:02.042Z,27.33
2023-02-11T03:19:03.020Z,18.33
2023-02-11T03:21:32.576Z,22.60
2023-02-11T03:24:05.804Z,30.42
2023-02-11T03:26:40.391Z,19.13
2023-02-11T03:29:36.463Z,24.17
2023-02-11T03:32:24.636Z,22.30
2023-02-11T03:35:00.197Z,27.88
2023-02-11T03:37:36.555Z,25.83
2023-02-11T03:40:23.458Z,28.63
2023-02-11T03:42:57.089Z,24.42
2023-02-11T03:45:25.651Z,26.10
2023-02-11T03:47:57.227Z,27.95
2023-02-11T03:50:26.304Z,21.35
2023-02-11T03:52:55.409Z,20.90
2023-02-11T03:55:25.915Z,36.05
2023-02-11T03:57:52.811Z,23.58
2023-02-11T04:00:19.655Z,25.60
2023-02-11T04:02:46.570Z,23.27
2023-02-11T04:05:16.140Z,29.02
2023-02-11T04:07:42.840Z,21.90
2023-02-11T04:10:11.462Z,22.58
2023-02-11T04:12:38.115Z,23.30
2023-02-11T04:15:05.488Z,25.27
2023-02-11T04:17:32.141Z,22.58
2023-02-11T04:19:58.783Z,21.38
2023-02-11T04:22:25.501Z,21.55
2023-02-11T04:24:52.158Z,17.98
2023-02-11T04:27:18.826Z,27.98
2023-02-11T04:29:45.521Z,35.17
2023-02-11T04:32:12.631Z,25.95
2023-02-11T04:34:39.581Z,28.55
2023-02-11T04:37:06.515Z,28.52
2023-02-11T04:39:33.176Z,29.45
2023-02-11T04:41:59.828Z,19.35
2023-02-11T04:44:26.664Z,18.02
2023-02-11T04:46:53.567Z,25.00
2023-02-11T04:49:20.294Z,26.02
2023-02-11T04:51:49.280Z,19.52
2023-02-11T04:54:16.752Z,21.30
2023-02-11T04:56:43.773Z,22.40
2023-02-11T04:59:11.491Z,28.33
2023-02-11T05:01:38.268Z,28.40
2023-02-11T05:04:05.250Z,27.63
2023-02-11T05:06:32.041Z,15.18
2023-02-11T05:08:58.704Z,23.33
2023-02-11T05:11:25.840Z,23.63
2023-02-11T05:13:53.255Z,27.48
2023-02-11T05:16:20.665Z,18.85
2023-02-11T05:18:47.385Z,28.05
2023-02-11T05:21:17.171Z,17.98
2023-02-11T05:23:44.767Z,25.03
2023-02-11T05:26:12.070Z,22.67
2023-02-11T05:28:39.282Z,21.33
2023-02-11T05:31:06.471Z,19.13
2023-02-11T05:33:33.702Z,25.30
2023-02-11T05:36:05.474Z,17.63
2023-02-11T05:38:33.257Z,26.52
2023-02-11T05:41:00.618Z,22.52
2023-02-11T05:43:27.506Z,20.65
2023-02-11T05:45:54.429Z,17.42
2023-02-11T05:48:21.289Z,29.05
2023-02-11T05:50:48.090Z,27.20
2023-02-11T05:53:14.927Z,23.85
2023-02-11T05:55:41.613Z,23.33
2023-02-11T05:58:08.627Z,20.88
2023-02-11T06:03:26.977Z,22.27
2023-02-11T06:05:53.764Z,20.80
2023-02-11T06:08:20.443Z,25.42
2023-02-11T06:10:47.083Z,25.17
2023-02-11T06:13:13.865Z,25.40
2023-02-11T06:15:40.591Z,27.15
2023-02-11T06:18:07.970Z,23.83
2023-02-11T06:20:34.793Z,24.95
2023-02-11T06:23:01.432Z,22.27
2023-02-11T06:25:28.103Z,20.50
2023-02-11T06:27:54.751Z,25.17
2023-02-11T06:30:21.440Z,24.05
2023-02-11T06:32:48.165Z,27.45
2023-02-11T06:35:15.045Z,18.27
2023-02-11T06:37:42.324Z,20.73
2023-02-11T06:40:10.487Z,21.67
2023-02-11T06:42:39.075Z,18.45
2023-02-11T06:45:08.957Z,17.15
2023-02-11T06:47:35.668Z,22.90
2023-02-11T06:50:02.565Z,19.80
2023-02-11T06:52:29.199Z,23.17
2023-02-11T06:54:58.304Z,20.38
2023-02-11T06:57:25.010Z,13.23
2023-02-11T06:59:51.831Z,24.23
2023-02-11T07:02:20.784Z,23.85
2023-02-11T07:04:47.855Z,22.35
2023-02-11T07:07:14.568Z,23.20
2023-02-11T07:09:41.448Z,18.48
2023-02-11T07:12:10.278Z,21.85
2023-02-11T07:14:36.945Z,16.70
2023-02-11T07:17:04.787Z,18.17
2023-02-11T07:19:31.566Z,23.88
2023-02-11T07:21:58.228Z,23.05
2023-02-11T07:24:25.094Z,21.15
2023-02-11T07:26:52.836Z,17.65
2023-02-11T07:29:19.486Z,14.68
2023-02-11T07:31:46.227Z,22.98
2023-02-11T07:34:13.023Z,16.45
2023-02-11T07:36:39.894Z,22.33
2023-02-11T07:39:06.557Z,16.25
2023-02-11T07:41:37.700Z,23.30
2023-02-11T07:44:04.978Z,22.80
2023-02-11T07:46:31.836Z,23.90
2023-02-11T07:48:58.694Z,21.70
2023-02-11T07:51:27.909Z,21.25
2023-02-11T07:53:55.598Z,19.42
2023-02-11T07:56:23.237Z,16.23
2023-02-11T07:58:50.794Z,20.73
2023-02-11T08:01:20.294Z,20.10
2023-02-11T08:03:47.246Z,22.75
2023-02-11T08:06:16.009Z,15.85
2023-02-11T08:08:43.487Z,14.68
2023-02-11T08:11:11.489Z,16.35
2023-02-11T08:13:38.185Z,15.23
2023-02-11T08:16:05.893Z,16.77
2023-02-11T08:18:33.355Z,25.05
2023-02-11T08:21:07.111Z,21.55
2023-02-11T08:23:35.740Z,16.15
2023-02-11T08:26:08.195Z,18.73
2023-02-11T08:28:42.658Z,23.63
2023-02-11T08:31:12.161Z,16.23
2023-02-11T08:33:40.350Z,21.85
2023-02-11T08:36:23.242Z,15.02
2023-02-11T08:38:52.658Z,16.90
2023-02-11T08:41:19.311Z,19.67
2023-02-11T08:43:46.283Z,19.58
2023-02-11T08:46:15.713Z,20.73
2023-02-11T08:48:43.357Z,17.70
2023-02-11T08:51:18.604Z,21.63
2023-02-11T08:53:45.998Z,16.88
2023-02-11T08:56:19.423Z,17.02
2023-02-11T08:58:46.115Z,20.50
2023-02-11T09:01:14.836Z,45.38
2023-02-11T09:03:41.721Z,25.95
2023-02-11T09:06:10.517Z,14.82
2023-02-11T09:08:39.746Z,19.02
2023-02-11T09:11:07.428Z,19.15
2023-02-11T09:13:34.424Z,20.25
2023-02-11T09:16:03.323Z,21.45
2023-02-11T09:18:30.485Z,21.73
2023-02-11T09:21:08.540Z,17.92
2023-02-11T09:23:35.807Z,21.40
2023-02-11T09:26:09.231Z,18.55
2023-02-11T09:28:36.510Z,22.67
2023-02-11T09:31:08.416Z,22.08
2023-02-11T09:33:35.354Z,17.65
2023-02-11T09:36:03.284Z,20.33
2023-02-11T09:38:30.223Z,20.75
2023-02-11T09:40:57.327Z,24.70
2023-02-11T09:43:53.017Z,22.35
2023-02-11T09:46:21.541Z,17.90
2023-02-11T09:48:50.379Z,19.02
2023-02-11T09:51:28.571Z,15.73
2023-02-11T09:54:01.738Z,22.88
2023-02-11T09:56:29.843Z,18.50
2023-02-11T09:58:56.630Z,19.75
2023-02-11T10:01:44.516Z,18.70
2023-02-11T10:04:26.159Z,19.02
2023-02-11T10:06:58.306Z,23.52
2023-02-11T10:09:42.915Z,19.73
2023-02-11T10:12:19.147Z,22.83
2023-02-11T10:15:00.592Z,15.95
2023-02-11T10:17:48.111Z,17.95
2023-02-11T10:20:38.842Z,17.30
2023-02-11T10:23:22.264Z,18.98
2023-02-11T10:25:54.466Z,14.63
2023-02-11T10:28:24.923Z,19.83
2023-02-11T10:31:09.595Z,19.20
2023-02-11T10:33:43.732Z,19.17
2023-02-11T10:36:12.612Z,19.23
2023-02-11T10:38:39.363Z,20.13
2023-02-11T10:41:06.846Z,21.30
2023-02-11T10:43:34.963Z,28.85
2023-02-11T10:46:04.538Z,24.00
2023-02-11T10:48:50.500Z,22.70
2023-02-11T10:51:26.205Z,20.83
2023-02-11T10:54:19.581Z,20.38
2023-02-11T10:56:50.149Z,20.80
2023-02-11T10:59:40.430Z,19.77
2023-02-11T11:02:32.160Z,19.67
2023-02-11T11:05:00.717Z,16.23
2023-02-11T11:07:30.180Z,16.42
2023-02-11T11:10:26.133Z,18.08
2023-02-11T11:12:52.775Z,19.38
2023-02-11T11:15:21.794Z,19.08
2023-02-11T11:18:22.067Z,23.88
2023-02-11T11:21:01.541Z,25.08
2023-02-11T11:23:30.670Z,17.65
2023-02-11T11:26:18.453Z,17.60
2023-02-11T11:29:09.375Z,12.68
2023-02-11T11:32:00.816Z,17.95
2023-02-11T11:34:33.942Z,18.15
2023-02-11T11:37:10.488Z,13.00
2023-02-11T11:39:37.347Z,16.08
2023-02-11T11:42:23.787Z,16.63
2023-02-11T11:44:59.156Z,18.92
2023-02-11T11:47:35.199Z,21.27
2023-02-11T11:50:26.310Z,18.48
2023-02-11T11:53:27.089Z,14.48
2023-02-11T11:55:59.849Z,17.23
2023-02-11T11:58:29.600Z,19.02
2023-02-11T12:01:26.609Z,16.13
2023-02-11T12:04:08.720Z,15.70
2023-02-11T12:06:41.208Z,11.90
2023-02-11T12:09:37.744Z,15.45
2023-02-11T12:12:34.824Z,14.88
2023-02-11T12:15:29.696Z,16.40
2023-02-11T12:18:22.623Z,18.77
2023-02-11T12:20:52.435Z,15.68
2023-02-11T12:23:44.346Z,13.90
2023-02-11T12:26:41.104Z,21.70
2023-02-11T12:29:35.226Z,15.80
2023-02-11T12:32:33.408Z,19.27
2023-02-11T12:35:25.060Z,20.13
2023-02-11T12:38:16.084Z,15.82
2023-02-11T12:41:10.362Z,14.25
2023-02-11T12:43:42.351Z,15.70
2023-02-11T12:46:34.129Z,15.13
2023-02-11T12:49:12.786Z,14.35
2023-02-11T12:52:03.223Z,13.68
2023-02-11T12:54:36.869Z,17.02
2023-02-11T12:57:18.331Z,13.23
2023-02-11T13:00:00.539Z,14.68
2023-02-11T13:03:00.150Z,12.48
2023-02-11T13:05:38.217Z,11.77
2023-02-11T13:08:12.885Z,15.77
2023-02-11T13:10:42.242Z,15.85
2023-02-11T13:13:22.436Z,11.45
2023-02-11T13:16:09.472Z,16.80
2023-02-11T13:18:49.676Z,10.60
2023-02-11T13:21:16.490Z,11.43
2023-02-11T13:24:09.283Z,9.43
2023-02-11T13:26:57.327Z,9.52
2023-02-11T13:30:09.592Z,12.70
2023-02-11T13:32:54.722Z,14.60
2023-02-11T13:35:35.026Z,12.73
2023-02-11T13:38:17.696Z,8.45
2023-02-11T13:40:45.633Z,10.88
2023-02-11T13:43:28.771Z,11.90
2023-02-11T13:46:07.085Z,12.40
2023-02-11T13:48:37.615Z,11.45
2023-02-11T13:51:10.526Z,17.15
2023-02-11T13:53:54.062Z,11.80
2023-02-11T13:56:36.203Z,9.05
2023-02-11T13:59:26.504Z,9.38
2023-02-11T14:02:18.112Z,11.20
2023-02-11T14:05:24.012Z,17.35
2023-02-11T14:08:28.773Z,14.65
2023-02-11T14:10:56.678Z,13.57
2023-02-11T14:13:29.350Z,13.25
2023-02-11T14:16:36.435Z,12.93
2023-02-11T14:19:06.216Z,13.98
2023-02-11T14:21:40.253Z,9.63
2023-02-11T14:24:10.858Z,11.95
2023-02-11T14:26:55.626Z,9.07
2023-02-11T14:29:50.996Z,13.25
2023-02-11T14:32:34.844Z,11.10
2023-02-11T14:35:23.998Z,10.15
2023-02-11T14:37:59.480Z,9.93
2023-02-11T14:40:41.926Z,22.10
2023-02-11T14:43:16.326Z,20.35
2023-02-11T14:45:47.995Z,15.77
2023-02-11T14:48:17.420Z,13.60
2023-02-11T14:50:52.084Z,16.13
2023-02-11T14:53:23.800Z,11.38
2023-02-11T14:55:54.789Z,14.85
2023-02-11T14:58:28.292Z,16.83
2023-02-11T15:01:06.711Z,13.18
2023-02-11T15:03:41.467Z,15.85
2023-02-11T15:06:34.246Z,14.32
2023-02-11T15:09:28.225Z,12.00
2023-02-11T15:11:56.840Z,14.13
2023-02-11T15:14:31.907Z,17.73
2023-02-11T15:17:04.439Z,16.50
2023-02-11T15:19:36.161Z,12.98
2023-02-11T15:22:07.066Z,17.10
2023-02-11T15:27:21.091Z,18.92
2023-02-11T15:29:50.613Z,16.50
2023-02-11T15:32:23.650Z,20.17
2023-02-11T15:34:52.598Z,15.02
2023-02-11T15:37:24.690Z,15.65
2023-02-11T15:39:52.440Z,15.15
2023-02-11T15:42:40.749Z,16.65
2023-02-11T15:45:13.975Z,16.55
2023-02-11T15:48:06.763Z,18.45
2023-02-11T15:50:37.090Z,15.90
2023-02-11T15:53:29.797Z,19.58
2023-02-11T15:56:18.219Z,17.52
2023-02-11T15:58:48.376Z,22.20
2023-02-11T16:01:15.760Z,20.35
2023-02-11T16:03:43.957Z,18.77
2023-02-11T16:06:21.238Z,20.05
2023-02-11T16:09:10.034Z,20.80
2023-02-11T16:11:50.057Z,18.80
2023-02-11T16:14:31.722Z,14.90
2023-02-11T16:17:00.847Z,25.35
2023-02-11T16:19:28.957Z,16.20
2023-02-11T16:21:57.292Z,18.60
2023-02-11T16:24:33.121Z,19.08
2023-02-11T16:27:05.121Z,13.95
2023-02-11T16:29:37.577Z,14.15
2023-02-11T16:32:10.753Z,19.85
2023-02-11T16:34:37.583Z,12.50
2023-02-11T16:37:05.638Z,15.50
2023-02-11T16:39:32.996Z,17.45
2023-02-11T16:42:00.843Z,13.60
2023-02-11T16:44:28.400Z,14.73
2023-02-11T16:46:58.452Z,14.93
2023-02-11T16:49:25.210Z,21.25
2023-02-11T16:51:56.548Z,10.30
2023-02-11T16:54:24.036Z,17.25
2023-02-11T16:56:50.886Z,13.35
2023-02-11T16:59:17.546Z,18.35
2023-02-11T17:01:45.667Z,17.73
2023-02-11T17:04:26.057Z,20.38
2023-02-11T17:06:52.989Z,23.65
2023-02-11T17:09:30.491Z,19.13
2023-02-11T17:11:57.733Z,14.68
2023-02-11T17:14:24.592Z,18.83
2023-02-11T17:16:51.216Z,23.85
2023-02-11T17:19:19.639Z,18.48
2023-02-11T17:21:48.110Z,18.70
2023-02-11T17:24:15.133Z,27.73
2023-02-11T17:26:43.409Z,25.92
2023-02-11T17:29:12.994Z,30.65
2023-02-11T17:31:40.759Z,35.55
2023-02-11T17:34:08.291Z,35.83
2023-02-11T17:36:35.109Z,27.90
2023-02-11T17:39:05.285Z,50.95
2023-02-11T17:41:33.912Z,45.60
2023-02-11T17:44:01.242Z,97.60
2023-02-11T17:46:28.659Z,113.15
2023-02-11T17:48:55.799Z,80.10
2023-02-11T17:51:37.374Z,42.60
2023-02-11T17:54:07.291Z,35.80
2023-02-11T17:56:35.735Z,42.83
2023-02-11T17:59:03.383Z,35.65
2023-02-11T18:01:32.188Z,33.25
2023-02-11T18:03:58.960Z,29.63
2023-02-11T18:06:26.550Z,31.65
2023-02-11T18:08:56.882Z,33.33
2023-02-11T18:11:25.176Z,49.70
2023-02-11T18:13:54.447Z,36.95
2023-02-11T18:16:22.607Z,49.53
2023-02-11T18:18:50.954Z,43.63
2023-02-11T18:21:20.426Z,33.22
2023-02-11T18:23:48.594Z,42.40
2023-02-11T18:26:17.726Z,33.50
2023-02-11T18:28:46.093Z,31.67
2023-02-11T18:31:14.229Z,40.80
2023-02-11T18:33:41.961Z,50.72
2023-02-11T18:36:13.929Z,43.90
2023-02-11T18:38:41.824Z,40.15
2023-02-11T18:41:08.938Z,33.35
2023-02-11T18:43:36.453Z,53.67
2023-02-11T18:46:07.774Z,36.50
2023-02-11T18:48:34.542Z,43.63
2023-02-11T18:51:01.212Z,39.42
2023-02-11T18:53:27.945Z,32.75
2023-02-11T18:55:55.175Z,39.33
2023-02-11T18:58:22.056Z,40.13
2023-02-11T19:00:49.883Z,40.03
2023-02-11T19:03:16.820Z,35.85
2023-02-11T19:05:48.915Z,38.85
2023-02-11T19:08:16.961Z,37.05
2023-02-11T19:10:49.277Z,43.22
2023-02-11T19:13:15.950Z,62.13
2023-02-11T19:15:44.292Z,47.65
2023-02-11T19:18:11.922Z,44.83
2023-02-11T19:20:43.365Z,39.33
2023-02-11T19:23:10.834Z,34.72
2023-02-11T19:25:44.403Z,35.97
2023-02-11T19:28:11.092Z,30.30
2023-02-11T19:30:37.920Z,27.13
2023-02-11T19:33:04.684Z,33.53
2023-02-11T19:35:35.527Z,35.85
2023-02-11T19:40:30.201Z,33.65
2023-02-11T19:42:56.932Z,28.92
2023-02-11T19:45:23.734Z,24.63
2023-02-11T19:47:55.010Z,22.10
2023-02-11T19:50:21.833Z,25.55
2023-02-11T19:52:48.677Z,29.35
2023-02-11T19:55:15.369Z,32.17
2023-02-11T19:57:42.228Z,38.72
2023-02-11T20:00:11.053Z,32.00
2023-02-11T20:02:39.523Z,28.55
2023-02-11T20:05:06.778Z,32.97
2023-02-11T20:07:33.546Z,33.60
2023-02-11T20:10:00.239Z,31.85
2023-02-11T20:12:26.920Z,38.30
2023-02-11T20:14:53.570Z,23.92
2023-02-11T20:17:20.275Z,29.05
2023-02-11T20:19:46.915Z,32.40
2023-02-11T20:22:13.561Z,33.97
2023-02-11T20:24:40.286Z,29.35
2023-02-11T20:27:08.399Z,46.20
2023-02-11T20:29:35.146Z,47.35
2023-02-11T20:32:03.367Z,28.38
2023-02-11T20:34:30.090Z,31.65
2023-02-11T20:36:57.025Z,22.65
2023-02-11T20:39:25.383Z,26.48
2023-02-11T20:41:53.634Z,32.25
2023-02-11T20:44:24.002Z,31.08
2023-02-11T20:46:51.800Z,31.17
2023-02-11T20:49:22.428Z,28.30
2023-02-11T20:51:49.505Z,29.02
2023-02-11T20:54:18.454Z,23.83
2023-02-11T20:56:47.914Z,30.25
2023-02-11T20:59:16.718Z,20.40
2023-02-11T21:01:46.367Z,24.45
2023-02-11T21:04:16.870Z,29.70
2023-02-11T21:06:47.092Z,23.40
2023-02-11T21:09:16.503Z,25.58
2023-02-11T21:11:43.445Z,31.02
2023-02-11T21:14:11.965Z,20.35
2023-02-11T21:16:40.130Z,25.08
2023-02-11T21:19:06.910Z,25.17
2023-02-11T21:21:36.280Z,29.85
2023-02-11T21:24:03.286Z,32.08
2023-02-11T21:26:29.957Z,25.98
2023-02-11T21:28:56.630Z,29.95
2023-02-11T21:31:30.281Z,25.75
2023-02-11T21:33:59.328Z,29.70
2023-02-11T21:36:28.078Z,31.90
2023-02-11T21:38:54.729Z,29.42
2023-02-11T21:41:22.626Z,27.30
2023-02-11T21:43:50.169Z,28.92
2023-02-11T21:46:17.758Z,36.90
2023-02-11T21:48:44.473Z,30.27
2023-02-11T21:51:21.525Z,35.88
2023-02-11T21:53:52.101Z,25.02
2023-02-11T21:56:19.036Z,29.35
2023-02-11T21:58:46.190Z,26.92
2023-02-11T22:01:19.420Z,29.85
2023-02-11T22:03:47.189Z,29.27
2023-02-11T22:06:21.382Z,28.25
2023-02-11T22:08:51.808Z,24.77
2023-02-11T22:11:19.241Z,28.70
2023-02-11T22:13:46.288Z,29.40
2023-02-11T22:16:16.374Z,29.13
2023-02-11T22:18:46.258Z,26.67
2023-02-11T22:21:16.580Z,21.88
2023-02-11T22:23:43.732Z,31.70
2023-02-11T22:26:13.012Z,24.95
2023-02-11T22:28:40.813Z,32.30
2023-02-11T22:31:11.642Z,30.40
2023-02-11T22:36:07.625Z,37.60
2023-02-11T22:38:34.877Z,33.03
2023-02-11T22:41:07.023Z,32.97
2023-02-11T22:43:33.693Z,37.25
2023-02-11T22:46:01.974Z,32.97
2023-02-11T22:48:28.796Z,31.13
2023-02-11T22:50:55.620Z,29.27
2023-02-11T22:53:25.411Z,28.95
2023-02-11T22:55:52.428Z,30.65
2023-02-11T22:58:19.225Z,28.92
2023-02-11T23:00:45.848Z,29.52
2023-02-11T23:03:12.819Z,26.30
2023-02-11T23:05:41.399Z,30.40
2023-02-11T23:08:10.717Z,31.67
2023-02-11T23:10:39.542Z,36.95
2023-02-11T23:13:08.108Z,32.03
2023-02-11T23:15:38.395Z,39.13
2023-02-11T23:18:05.336Z,29.25
2023-02-11T23:20:35.001Z,32.25
2023-02-11T23:23:01.888Z,31.75
2023-02-11T23:25:28.974Z,32.58
2023-02-11T23:27:55.709Z,33.88
2023-02-11T23:30:22.681Z,27.17
2023-02-11T23:32:50.356Z,31.55
2023-02-11T23:35:22.142Z,28.90
2023-02-11T23:37:52.748Z,32.58
2023-02-11T23:40:21.281Z,27.08
2023-02-11T23:42:48.987Z,29.60
2023-02-11T23:45:15.792Z,34.92
2023-02-11T23:47:42.444Z,29.02
2023-02-11T23:50:09.951Z,23.95
2023-02-11T23:52:36.637Z,25.10
2023-02-11T23:55:03.573Z,20.13
2023-02-11T23:57:32.628Z,29.00
2023-02-11T23:59:59.320Z,29.88
